Glenn Springs, South Carolina
Current Conditions -  °F | °C
As of 10:15 PM on Monday 20 Oct 2014 (Local Time) from KSPA Reporting Station
Clear Clear  
Wind Chill: 61°   Ceiling: Unl
Heat Index: 61°   Visibility: 10mi
Dew Point: 54°   Wind: 3mph
Humidity: 77%   Direction: 230°SW
Pressure: 30"   Gusts: NA
Location:  34.7822°N, 81.8451°W
Report Text: KSPA 210215Z AUTO 23003KT 10SM CLR 16/12 A3000 RMK AO2
Loading
Personal Weather Stations






























Interactive Weather Map
Tropical Storm Tracking
New forecast layout! Learn more

10-Day Weather Forecast

Advertisements
Track Severe Weather on mobile